createdAt,value
2023-02-27T00:00:57.563Z,65.82
2023-02-27T00:01:59.509Z,65.92
2023-02-27T00:03:01.388Z,65.78
2023-02-27T00:04:03.497Z,65.58
2023-02-27T00:05:06.265Z,66.09
2023-02-27T00:06:08.260Z,65.82
2023-02-27T00:07:10.331Z,65.89
2023-02-27T00:08:12.569Z,66.19
2023-02-27T00:09:14.446Z,66.86
2023-02-27T00:10:16.786Z,68.59
2023-02-27T00:11:18.541Z,68.95
2023-02-27T00:12:20.391Z,68.96
2023-02-27T00:13:22.361Z,69.03
2023-02-27T00:14:24.588Z,68.68
2023-02-27T00:15:26.669Z,68.30
2023-02-27T00:16:28.543Z,68.08
2023-02-27T00:17:30.790Z,67.74
2023-02-27T00:18:32.787Z,67.78
2023-02-27T00:19:34.624Z,67.60
2023-02-27T00:20:36.466Z,67.90
2023-02-27T00:21:38.246Z,68.39
2023-02-27T00:22:41.526Z,68.05
2023-02-27T00:23:43.346Z,67.78
2023-02-27T00:24:45.326Z,67.62
2023-02-27T00:25:47.097Z,67.44
2023-02-27T00:26:49.059Z,67.51
2023-02-27T00:27:51.124Z,67.73
2023-02-27T00:28:52.942Z,67.79
2023-02-27T00:29:55.045Z,68.19
2023-02-27T00:30:57.580Z,67.48
2023-02-27T00:32:00.911Z,67.52
2023-02-27T00:38:14.064Z,67.89
2023-02-27T00:39:16.042Z,68.14
2023-02-27T00:40:18.483Z,68.02
2023-02-27T00:41:20.280Z,67.86
2023-02-27T00:42:22.482Z,68.15
2023-02-27T00:43:24.998Z,68.19
2023-02-27T00:44:27.239Z,68.26
2023-02-27T00:45:29.502Z,68.28
2023-02-27T00:46:31.441Z,68.25
2023-02-27T00:47:34.477Z,68.07
2023-02-27T00:48:36.435Z,67.98
2023-02-27T00:49:38.240Z,67.76
2023-02-27T00:50:40.211Z,68.03
2023-02-27T00:51:42.172Z,67.93
2023-02-27T00:52:44.256Z,68.12
2023-02-27T00:53:46.707Z,68.24
2023-02-27T00:54:48.904Z,68.49
2023-02-27T00:55:50.911Z,68.73
2023-02-27T00:56:52.661Z,68.91
2023-02-27T00:57:54.490Z,68.86
2023-02-27T00:58:56.287Z,68.78
2023-02-27T00:59:58.222Z,68.73
2023-02-27T01:01:00.572Z,68.36
2023-02-27T01:02:02.440Z,68.41
2023-02-27T01:03:04.642Z,68.52
2023-02-27T01:04:06.769Z,68.34
2023-02-27T01:05:09.397Z,68.06
2023-02-27T01:06:11.354Z,68.58
2023-02-27T01:07:13.166Z,68.86
2023-02-27T01:08:14.958Z,68.79
2023-02-27T01:09:16.762Z,68.76
2023-02-27T01:10:18.561Z,68.64
2023-02-27T01:11:20.374Z,68.77
2023-02-27T01:12:22.149Z,68.98
2023-02-27T01:13:24.509Z,69.00
2023-02-27T01:14:26.690Z,69.13
2023-02-27T01:15:28.828Z,69.13
2023-02-27T01:16:30.950Z,68.96
2023-02-27T01:17:33.328Z,68.88
2023-02-27T01:18:35.098Z,68.93
2023-02-27T01:19:36.951Z,68.78
2023-02-27T01:20:38.898Z,68.77
2023-02-27T01:21:40.882Z,68.78
2023-02-27T01:22:42.721Z,68.95
2023-02-27T01:23:44.769Z,69.10
2023-02-27T01:24:46.574Z,69.67
2023-02-27T01:25:49.101Z,69.43
2023-02-27T01:26:51.122Z,70.10
2023-02-27T01:27:53.101Z,70.33
2023-02-27T01:28:55.041Z,70.66
2023-02-27T01:29:56.858Z,71.03
2023-02-27T01:30:58.634Z,70.99
2023-02-27T01:32:00.768Z,71.18
2023-02-27T01:33:02.749Z,71.13
2023-02-27T01:34:04.800Z,70.95
2023-02-27T01:35:07.388Z,70.77
2023-02-27T01:36:09.968Z,70.79
2023-02-27T01:37:11.841Z,70.60
2023-02-27T01:38:13.641Z,70.83
2023-02-27T01:39:15.467Z,70.90
2023-02-27T01:40:17.471Z,70.96
2023-02-27T01:41:19.451Z,71.14
2023-02-27T01:42:26.888Z,71.12
2023-02-27T01:43:29.252Z,70.94
2023-02-27T01:44:31.904Z,70.92
2023-02-27T01:45:36.159Z,70.79
2023-02-27T01:46:38.469Z,70.60
2023-02-27T01:47:44.887Z,70.80
2023-02-27T01:48:46.941Z,70.65
2023-02-27T01:49:49.008Z,71.01
2023-02-27T01:51:02.321Z,71.32
2023-02-27T01:52:08.826Z,71.44
2023-02-27T01:53:11.048Z,71.39
2023-02-27T01:54:17.743Z,71.28
2023-02-27T01:55:20.629Z,71.20
2023-02-27T01:56:25.791Z,71.42
2023-02-27T01:57:27.813Z,71.36
2023-02-27T01:58:30.169Z,71.29
2023-02-27T01:59:34.063Z,71.13
2023-02-27T02:00:36.200Z,70.60
2023-02-27T02:01:38.522Z,70.49
2023-02-27T02:02:47.867Z,70.89
2023-02-27T02:03:55.408Z,71.24
2023-02-27T02:04:57.761Z,71.33
2023-02-27T02:06:01.891Z,71.22
2023-02-27T02:07:07.731Z,71.22
2023-02-27T02:08:11.229Z,71.22
2023-02-27T02:09:15.512Z,71.16
2023-02-27T02:10:19.815Z,70.76
2023-02-27T02:11:24.066Z,70.80
2023-02-27T02:12:35.181Z,70.65
2023-02-27T02:13:39.513Z,70.91
2023-02-27T02:14:41.243Z,71.35
2023-02-27T02:15:51.366Z,73.95
2023-02-27T02:18:44.978Z,79.15
2023-02-27T02:20:28.045Z,81.39
2023-02-27T02:38:07.185Z,89.94
2023-02-27T02:39:38.437Z,89.50
2023-02-27T02:40:55.137Z,89.60
2023-02-27T02:42:03.421Z,89.92
2023-02-27T02:43:28.634Z,90.28
2023-02-27T02:44:57.577Z,89.74
2023-02-27T02:46:13.480Z,89.31
2023-02-27T02:47:40.030Z,89.06
2023-02-27T02:48:49.959Z,89.07
2023-02-27T02:50:28.072Z,89.11
2023-02-27T02:51:46.694Z,90.04
2023-02-27T02:53:03.637Z,89.72
2023-02-27T02:54:13.303Z,90.77
2023-02-27T02:55:29.786Z,91.12
2023-02-27T02:57:06.238Z,90.89
2023-02-27T02:58:25.448Z,91.10
2023-02-27T02:59:38.412Z,90.54
2023-02-27T03:00:51.214Z,89.56
2023-02-27T03:02:04.273Z,89.46
2023-02-27T03:03:15.387Z,88.99
2023-02-27T03:04:28.674Z,88.82
2023-02-27T03:05:40.213Z,88.70
2023-02-27T03:06:48.859Z,88.25
2023-02-27T03:07:57.223Z,88.10
2023-02-27T03:09:20.016Z,88.38
2023-02-27T03:10:29.206Z,88.79
2023-02-27T03:34:38.311Z,86.26
2023-02-27T03:36:01.241Z,86.02
2023-02-27T03:37:13.669Z,84.39
2023-02-27T03:38:26.555Z,84.43
2023-02-27T03:39:45.419Z,84.19
2023-02-27T03:43:07.512Z,83.87
2023-02-27T03:44:12.192Z,83.44
2023-02-27T03:46:27.498Z,82.75
2023-02-27T03:47:31.242Z,82.51
2023-02-27T03:48:37.539Z,82.40
2023-02-27T03:49:39.701Z,82.45
2023-02-27T03:50:44.469Z,83.00
2023-02-27T03:51:47.277Z,83.78
2023-02-27T03:52:52.384Z,85.13
2023-02-27T03:54:10.211Z,86.04
2023-02-27T03:55:21.359Z,85.97
2023-02-27T03:56:33.273Z,85.54
2023-02-27T03:57:37.807Z,85.49
2023-02-27T03:58:40.557Z,86.24
2023-02-27T03:59:43.704Z,85.71
2023-02-27T04:00:48.757Z,86.13
2023-02-27T04:01:54.488Z,86.21
2023-02-27T04:03:00.065Z,86.00
2023-02-27T04:04:11.975Z,86.21
2023-02-27T04:05:17.246Z,86.35
2023-02-27T04:06:22.645Z,86.30
2023-02-27T04:07:32.232Z,85.88
2023-02-27T04:09:08.280Z,85.83
2023-02-27T04:10:48.800Z,85.96
2023-02-27T04:12:07.173Z,86.37
2023-02-27T04:13:48.054Z,85.97
2023-02-27T04:15:17.006Z,86.00
2023-02-27T04:17:01.031Z,87.14
2023-02-27T04:18:07.178Z,87.64
2023-02-27T04:19:23.465Z,87.80
2023-02-27T04:20:42.516Z,88.19
2023-02-27T04:22:05.982Z,88.40
2023-02-27T04:23:24.227Z,87.89
2023-02-27T04:24:49.792Z,88.31
2023-02-27T04:26:15.138Z,87.81
2023-02-27T04:27:29.971Z,88.38
2023-02-27T04:28:44.750Z,88.06
2023-02-27T04:30:14.344Z,88.29
2023-02-27T04:31:24.718Z,88.43
2023-02-27T04:32:49.689Z,88.13
2023-02-27T04:34:03.389Z,87.44
2023-02-27T04:35:32.736Z,86.67
2023-02-27T04:36:44.876Z,86.77
2023-02-27T04:38:00.964Z,86.17
2023-02-27T04:39:07.838Z,86.06
2023-02-27T04:40:19.554Z,86.26
2023-02-27T04:41:34.164Z,86.57
2023-02-27T04:42:42.645Z,86.50
2023-02-27T04:43:46.633Z,86.81
2023-02-27T04:44:51.326Z,85.91
2023-02-27T04:45:55.170Z,85.58
2023-02-27T04:47:00.955Z,86.04
2023-02-27T04:48:13.869Z,86.39
2023-02-27T04:49:28.506Z,86.38
2023-02-27T04:50:38.593Z,86.25
2023-02-27T04:51:50.449Z,86.61
2023-02-27T04:53:11.764Z,86.02
2023-02-27T04:54:22.890Z,85.78
2023-02-27T04:55:30.567Z,86.27
2023-02-27T04:56:39.015Z,85.98
2023-02-27T04:57:52.034Z,86.23
2023-02-27T04:59:02.341Z,85.91
2023-02-27T05:00:08.177Z,86.37
2023-02-27T05:01:17.073Z,86.38
2023-02-27T05:02:32.327Z,86.67
2023-02-27T05:03:39.607Z,86.99
2023-02-27T05:04:45.273Z,86.83
2023-02-27T05:05:49.099Z,86.80
2023-02-27T05:06:54.467Z,87.36
2023-02-27T05:08:21.740Z,87.77
2023-02-27T05:09:46.179Z,88.09
2023-02-27T05:11:05.633Z,87.88
2023-02-27T05:12:30.651Z,88.06
2023-02-27T05:13:48.227Z,88.31
2023-02-27T05:15:00.541Z,87.84
2023-02-27T05:16:13.164Z,88.08
2023-02-27T05:17:40.109Z,88.55
2023-02-27T05:18:42.128Z,88.41
2023-02-27T05:19:44.903Z,88.45
2023-02-27T05:21:12.140Z,88.49
2023-02-27T05:22:24.721Z,88.11
2023-02-27T05:23:44.026Z,88.36
2023-02-27T05:24:56.198Z,88.07
2023-02-27T05:26:22.772Z,87.52
2023-02-27T05:27:53.966Z,87.44
2023-02-27T05:29:06.600Z,87.46
2023-02-27T05:30:34.375Z,87.67
2023-02-27T05:31:42.088Z,87.10
2023-02-27T05:33:09.448Z,86.34
2023-02-27T05:34:45.036Z,86.75
2023-02-27T05:36:05.852Z,87.03
2023-02-27T05:37:33.210Z,87.36
2023-02-27T05:38:41.583Z,87.50
2023-02-27T05:39:45.949Z,87.07
2023-02-27T05:40:52.896Z,87.24
2023-02-27T05:42:00.648Z,86.94
2023-02-27T05:43:15.248Z,86.86
2023-02-27T05:44:33.599Z,87.14
2023-02-27T05:45:39.126Z,87.55
2023-02-27T05:46:46.351Z,87.78
2023-02-27T05:48:02.640Z,87.27
2023-02-27T05:49:12.231Z,87.81
2023-02-27T05:50:19.899Z,87.94
2023-02-27T05:51:25.624Z,88.51
2023-02-27T05:52:31.242Z,88.54
2023-02-27T05:53:39.489Z,88.46
2023-02-27T05:54:53.794Z,87.90
2023-02-27T05:56:00.561Z,87.90
2023-02-27T05:57:05.100Z,87.57
2023-02-27T05:58:36.956Z,87.00
2023-02-27T06:00:06.957Z,87.18
2023-02-27T06:01:11.567Z,87.17
2023-02-27T06:02:13.788Z,86.96
2023-02-27T06:03:15.940Z,86.82
2023-02-27T06:04:18.078Z,86.37
2023-02-27T06:05:20.494Z,86.74
2023-02-27T06:06:23.107Z,86.80
2023-02-27T06:07:25.139Z,86.62
2023-02-27T06:08:29.526Z,86.58
2023-02-27T06:09:34.082Z,86.94
2023-02-27T06:10:36.485Z,86.75
2023-02-27T06:11:38.633Z,87.01
2023-02-27T06:12:40.949Z,86.92
2023-02-27T06:13:42.718Z,86.50
2023-02-27T06:14:44.960Z,86.43
2023-02-27T06:15:46.780Z,86.96
2023-02-27T06:16:48.807Z,87.30
2023-02-27T06:17:51.233Z,87.27
2023-02-27T06:18:53.572Z,86.96
2023-02-27T06:19:55.297Z,86.96
2023-02-27T06:20:57.214Z,86.79
2023-02-27T06:21:58.947Z,86.42
2023-02-27T06:23:00.666Z,85.99
2023-02-27T06:24:02.852Z,85.81
2023-02-27T06:25:05.168Z,86.10
2023-02-27T06:26:07.061Z,86.35
2023-02-27T06:27:08.995Z,85.47
2023-02-27T06:28:11.633Z,86.04
2023-02-27T06:29:14.004Z,86.18
2023-02-27T06:30:16.098Z,85.96
2023-02-27T06:31:17.927Z,85.49
2023-02-27T06:32:20.866Z,85.20
2023-02-27T06:33:26.104Z,85.42
2023-02-27T06:34:28.249Z,85.43
2023-02-27T06:35:30.301Z,85.58
2023-02-27T06:36:32.182Z,85.33
2023-02-27T06:37:34.302Z,85.10
2023-02-27T06:38:36.343Z,85.15
2023-02-27T06:39:38.218Z,84.97
2023-02-27T06:40:39.946Z,85.21
2023-02-27T06:41:42.078Z,85.08
2023-02-27T06:42:45.404Z,85.24
2023-02-27T06:43:47.361Z,85.08
2023-02-27T06:44:49.434Z,84.94
2023-02-27T06:45:54.580Z,84.92
2023-02-27T06:46:56.582Z,84.97
2023-02-27T06:47:58.522Z,85.21
2023-02-27T06:49:00.512Z,85.34
2023-02-27T06:50:02.433Z,85.21
2023-02-27T06:51:04.342Z,85.08
2023-02-27T06:52:06.175Z,85.10
2023-02-27T06:53:08.378Z,85.42
2023-02-27T06:54:10.716Z,85.81
2023-02-27T06:55:13.066Z,85.75
2023-02-27T06:56:15.603Z,85.43
2023-02-27T06:57:17.527Z,84.50
2023-02-27T06:58:19.489Z,84.09
2023-02-27T06:59:21.517Z,84.18
2023-02-27T07:00:23.766Z,84.71
2023-02-27T07:01:25.836Z,84.63
2023-02-27T07:02:28.078Z,84.97
2023-02-27T07:03:29.986Z,84.90
2023-02-27T07:04:31.853Z,85.18
2023-02-27T07:05:33.712Z,84.72
2023-02-27T07:07:34.540Z,84.05
2023-02-27T07:07:58.663Z,83.28
2023-02-27T07:09:03.260Z,83.35
2023-02-27T07:10:12.762Z,83.64
2023-02-27T07:11:14.816Z,83.06
2023-02-27T07:12:16.655Z,82.16
2023-02-27T07:13:19.764Z,82.03
2023-02-27T07:14:21.975Z,82.38
2023-02-27T07:15:23.948Z,82.24
2023-02-27T07:16:26.242Z,81.86
2023-02-27T07:17:28.422Z,82.10
2023-02-27T07:18:30.485Z,82.12
2023-02-27T07:19:33.359Z,81.29
2023-02-27T07:20:35.365Z,80.71
2023-02-27T07:21:37.390Z,80.69
2023-02-27T07:22:40.688Z,81.39
2023-02-27T07:23:43.656Z,80.82
2023-02-27T07:24:45.523Z,80.98
2023-02-27T07:25:48.750Z,80.34
2023-02-27T07:26:51.041Z,80.17
2023-02-27T07:27:53.066Z,80.75
2023-02-27T07:28:55.088Z,80.14
2023-02-27T07:29:57.158Z,79.36
2023-02-27T07:30:59.097Z,79.89
2023-02-27T07:32:01.316Z,79.38
2023-02-27T07:33:03.400Z,79.30
2023-02-27T07:34:05.276Z,79.20
2023-02-27T07:35:08.437Z,78.14
2023-02-27T07:36:11.036Z,77.86
2023-02-27T07:37:13.912Z,77.63
2023-02-27T07:38:16.006Z,77.87
2023-02-27T07:39:18.010Z,76.76
2023-02-27T07:40:20.140Z,77.28
2023-02-27T07:41:30.369Z,77.27
2023-02-27T07:42:32.847Z,77.13
2023-02-27T07:43:34.627Z,77.34
2023-02-27T07:44:36.838Z,77.17
2023-02-27T07:45:38.854Z,77.11
2023-02-27T07:46:41.277Z,77.17
2023-02-27T07:47:43.033Z,76.96
2023-02-27T07:48:44.860Z,77.18
2023-02-27T07:49:46.965Z,76.07
2023-02-27T07:50:49.276Z,75.44
2023-02-27T07:53:01.856Z,76.32
2023-02-27T07:54:04.296Z,75.67
2023-02-27T07:55:07.183Z,75.38
2023-02-27T07:56:09.850Z,75.62
2023-02-27T07:57:14.985Z,75.01
2023-02-27T07:58:17.072Z,72.95
2023-02-27T07:59:18.932Z,73.25
2023-02-27T08:00:20.958Z,73.21
2023-02-27T08:01:22.958Z,74.41
2023-02-27T08:02:24.955Z,74.69
2023-02-27T08:03:27.022Z,73.77
2023-02-27T08:04:32.820Z,74.27
2023-02-27T08:05:42.634Z,72.85
2023-02-27T08:06:44.842Z,73.27
2023-02-27T08:07:48.737Z,73.03
2023-02-27T08:08:51.911Z,73.33
2023-02-27T08:09:54.158Z,72.07
2023-02-27T08:10:57.168Z,71.96
2023-02-27T08:13:55.709Z,72.28
2023-02-27T08:14:47.595Z,73.43
2023-02-27T08:15:50.535Z,74.26
2023-02-27T08:16:54.408Z,74.49
2023-02-27T08:17:56.999Z,74.04
2023-02-27T08:19:01.429Z,73.52
2023-02-27T08:20:05.876Z,71.58
2023-02-27T08:21:09.080Z,72.31
2023-02-27T08:22:12.338Z,72.28
2023-02-27T08:23:14.761Z,72.64
2023-02-27T08:24:17.304Z,72.46
2023-02-27T08:25:19.623Z,72.48
2023-02-27T08:26:21.685Z,71.77
2023-02-27T08:27:23.961Z,71.24
2023-02-27T08:28:27.792Z,70.95
2023-02-27T08:29:36.235Z,71.54
2023-02-27T08:30:38.799Z,71.48
2023-02-27T08:31:41.709Z,71.61
2023-02-27T08:32:44.499Z,71.75
2023-02-27T08:33:46.701Z,71.60
2023-02-27T08:34:55.376Z,72.41
2023-02-27T08:35:57.649Z,71.90
2023-02-27T08:36:59.997Z,71.39
2023-02-27T08:38:02.428Z,72.56
2023-02-27T08:39:05.079Z,71.91
2023-02-27T08:40:08.494Z,71.61
2023-02-27T08:41:11.162Z,71.32
2023-02-27T08:42:13.504Z,72.43
2023-02-27T08:43:15.290Z,72.05
2023-02-27T08:44:17.037Z,71.66
2023-02-27T08:45:19.038Z,71.59
2023-02-27T08:46:21.339Z,70.44
2023-02-27T08:47:23.349Z,70.52
2023-02-27T08:48:25.354Z,70.18
2023-02-27T08:49:27.368Z,69.46
2023-02-27T08:50:29.108Z,68.44
2023-02-27T08:51:31.121Z,68.66
2023-02-27T08:52:33.381Z,68.70
2023-02-27T08:53:35.393Z,69.09
2023-02-27T08:54:37.897Z,68.49
2023-02-27T08:55:39.644Z,68.59
2023-02-27T08:56:41.312Z,68.21
2023-02-27T08:57:43.052Z,65.83
2023-02-27T08:58:44.689Z,66.34
2023-02-27T08:59:46.492Z,65.75
2023-02-27T09:00:48.280Z,66.37
2023-02-27T09:01:50.104Z,66.31
2023-02-27T09:02:52.369Z,64.79
2023-02-27T09:03:54.633Z,65.39
2023-02-27T09:04:56.594Z,63.94
2023-02-27T09:05:58.928Z,65.75
2023-02-27T09:07:00.676Z,65.31
2023-02-27T09:08:03.293Z,65.87
2023-02-27T09:09:05.459Z,64.06
2023-02-27T09:10:07.650Z,64.09
2023-02-27T09:11:09.467Z,64.12
2023-02-27T09:12:11.873Z,65.07
2023-02-27T09:13:13.731Z,65.68
2023-02-27T09:14:15.584Z,66.78
2023-02-27T09:15:17.810Z,67.51
2023-02-27T09:16:21.408Z,66.74
2023-02-27T09:17:23.317Z,66.42
2023-02-27T09:18:25.132Z,66.27
2023-02-27T09:19:26.909Z,68.01
2023-02-27T09:20:29.912Z,66.90
2023-02-27T09:21:31.652Z,67.98
2023-02-27T09:22:33.778Z,67.73
2023-02-27T09:23:35.974Z,69.21
2023-02-27T09:24:37.769Z,69.54
2023-02-27T09:25:39.480Z,70.24
2023-02-27T09:26:46.141Z,69.49
2023-02-27T09:27:48.300Z,68.87
2023-02-27T09:28:50.296Z,69.03
2023-02-27T09:29:52.116Z,70.06
2023-02-27T09:30:54.059Z,70.89
2023-02-27T09:31:56.021Z,68.29
2023-02-27T09:32:58.246Z,67.93
2023-02-27T09:34:00.240Z,68.21
2023-02-27T09:35:01.938Z,68.72
2023-02-27T09:36:05.520Z,66.17
2023-02-27T09:37:07.189Z,65.82
2023-02-27T09:38:08.878Z,64.66
2023-02-27T09:39:10.638Z,65.90
2023-02-27T09:40:28.407Z,65.94
2023-02-27T09:41:51.304Z,65.40
2023-02-27T09:42:57.639Z,64.23
2023-02-27T09:43:59.899Z,65.52
2023-02-27T09:45:05.948Z,64.29
2023-02-27T09:46:10.639Z,63.29
2023-02-27T09:47:27.703Z,63.97
2023-02-27T09:48:36.992Z,64.53
2023-02-27T09:49:55.626Z,65.68
2023-02-27T09:50:58.154Z,66.65
2023-02-27T09:52:00.738Z,67.55
2023-02-27T09:53:02.874Z,65.98
2023-02-27T09:54:05.130Z,65.25
2023-02-27T09:55:15.063Z,64.77
2023-02-27T09:57:04.371Z,65.13
2023-02-27T09:58:43.983Z,65.10
2023-02-27T09:59:57.368Z,63.16
2023-02-27T10:01:18.091Z,62.54
2023-02-27T10:02:38.309Z,62.53
2023-02-27T10:04:00.670Z,61.61
2023-02-27T10:05:26.883Z,62.00
2023-02-27T10:06:42.809Z,63.19
2023-02-27T10:07:56.983Z,62.76
2023-02-27T10:09:14.129Z,63.17
2023-02-27T10:10:29.891Z,62.79
2023-02-27T10:11:42.538Z,62.62
2023-02-27T10:13:02.316Z,62.46
2023-02-27T10:14:27.341Z,62.45
2023-02-27T10:15:37.644Z,62.34
2023-02-27T10:16:40.625Z,62.88
2023-02-27T10:17:48.409Z,63.81
2023-02-27T10:19:00.163Z,65.59
2023-02-27T10:20:07.237Z,65.03
2023-02-27T10:21:14.280Z,64.99
2023-02-27T10:22:22.036Z,64.99
2023-02-27T10:23:54.537Z,65.01
2023-02-27T10:25:31.199Z,64.30
2023-02-27T10:26:40.513Z,64.56
2023-02-27T10:27:45.838Z,63.15
2023-02-27T10:28:47.785Z,62.43
2023-02-27T10:29:50.104Z,62.58
2023-02-27T10:30:55.381Z,62.53
2023-02-27T10:32:21.295Z,62.84
2023-02-27T10:33:45.145Z,60.77
2023-02-27T10:34:59.030Z,59.02
2023-02-27T10:36:02.823Z,59.42
2023-02-27T10:37:06.462Z,57.69
2023-02-27T10:38:34.383Z,56.16
2023-02-27T10:40:02.165Z,58.02
2023-02-27T10:41:06.168Z,55.60
2023-02-27T10:42:12.595Z,54.84
2023-02-27T10:43:17.215Z,55.33
2023-02-27T10:44:19.515Z,54.38
2023-02-27T10:45:21.300Z,54.80
2023-02-27T10:46:30.522Z,54.76
2023-02-27T10:47:32.671Z,54.87
2023-02-27T10:48:34.440Z,53.81
2023-02-27T10:49:37.917Z,54.20
2023-02-27T10:51:34.830Z,54.71
2023-02-27T10:52:49.055Z,53.67
2023-02-27T10:53:51.432Z,53.06
2023-02-27T10:54:53.335Z,52.74
2023-02-27T10:56:08.089Z,52.48
2023-02-27T10:57:40.855Z,52.32
2023-02-27T10:58:43.402Z,50.93
2023-02-27T10:59:53.902Z,49.49
2023-02-27T11:01:01.273Z,50.83
2023-02-27T11:02:36.365Z,50.90
2023-02-27T11:03:43.771Z,50.95
2023-02-27T11:04:54.986Z,50.94
2023-02-27T11:05:59.914Z,49.67
2023-02-27T11:07:04.823Z,49.29
2023-02-27T11:08:12.745Z,50.68
2023-02-27T11:09:27.619Z,50.57
2023-02-27T11:10:29.548Z,51.19
2023-02-27T11:11:31.234Z,51.29
2023-02-27T11:12:35.405Z,51.21
2023-02-27T11:13:42.708Z,52.39
2023-02-27T11:15:02.201Z,50.79
2023-02-27T11:16:20.961Z,48.01
2023-02-27T11:17:28.137Z,49.12
2023-02-27T11:18:31.077Z,49.14
2023-02-27T11:19:36.545Z,49.88
2023-02-27T11:20:40.228Z,49.94
2023-02-27T11:21:59.230Z,47.56
2023-02-27T11:23:07.115Z,49.15
2023-02-27T11:24:20.239Z,49.74
2023-02-27T11:25:24.844Z,50.10
2023-02-27T11:26:38.185Z,50.47
2023-02-27T11:27:40.570Z,50.43
2023-02-27T11:28:42.973Z,50.00
2023-02-27T11:30:06.515Z,48.30
2023-02-27T11:31:21.144Z,47.01
2023-02-27T11:32:24.005Z,47.37
2023-02-27T11:33:27.020Z,47.06
2023-02-27T11:34:31.803Z,49.01
2023-02-27T11:35:38.608Z,47.66
2023-02-27T11:36:47.221Z,46.70
2023-02-27T11:37:51.407Z,45.95
2023-02-27T11:38:55.189Z,46.40
2023-02-27T11:40:00.004Z,48.04
2023-02-27T11:41:07.346Z,47.57
2023-02-27T11:42:21.002Z,47.59
2023-02-27T11:43:30.833Z,47.25
2023-02-27T11:44:50.675Z,48.50
2023-02-27T11:46:19.453Z,49.29
2023-02-27T11:47:25.748Z,51.97
2023-02-27T11:48:34.896Z,51.23
2023-02-27T11:50:00.682Z,53.13
2023-02-27T11:51:11.256Z,54.08
2023-02-27T11:52:21.485Z,52.41
2023-02-27T11:53:44.066Z,50.07
2023-02-27T11:55:01.610Z,50.47
2023-02-27T11:56:08.734Z,51.19
2023-02-27T11:57:41.417Z,51.36
2023-02-27T11:59:10.655Z,49.82
2023-02-27T12:00:27.825Z,49.86
2023-02-27T12:02:00.363Z,50.40
2023-02-27T12:03:11.026Z,53.24
2023-02-27T12:04:31.383Z,53.30
2023-02-27T12:05:47.815Z,51.89
2023-02-27T12:06:57.665Z,53.48
2023-02-27T12:08:06.674Z,53.35
2023-02-27T12:09:29.236Z,52.42
2023-02-27T12:10:38.815Z,53.99
2023-02-27T12:11:46.806Z,54.16
2023-02-27T12:13:01.292Z,54.47
2023-02-27T12:14:06.108Z,54.64
2023-02-27T12:15:18.860Z,56.90
2023-02-27T12:16:38.200Z,56.64
2023-02-27T12:17:57.209Z,55.39
2023-02-27T12:19:38.969Z,52.12
2023-02-27T12:20:52.572Z,50.12
2023-02-27T12:22:00.047Z,49.91
2023-02-27T12:23:06.392Z,49.29
2023-02-27T12:24:18.408Z,50.56
2023-02-27T12:25:38.478Z,51.05
2023-02-27T12:26:44.146Z,51.00
2023-02-27T12:28:01.374Z,51.92
2023-02-27T12:29:21.142Z,52.16
2023-02-27T12:30:27.187Z,51.09
2023-02-27T12:31:35.112Z,51.95
2023-02-27T12:33:15.640Z,51.30
2023-02-27T12:34:53.329Z,53.15
2023-02-27T12:36:01.361Z,53.73
2023-02-27T12:37:13.490Z,53.07
2023-02-27T12:38:15.466Z,52.48
2023-02-27T12:39:21.068Z,52.64
2023-02-27T12:40:40.320Z,52.88
2023-02-27T12:42:25.488Z,52.30
2023-02-27T12:43:53.188Z,51.79
2023-02-27T12:45:25.850Z,52.34
2023-02-27T12:46:30.386Z,53.51
2023-02-27T12:48:10.590Z,52.82
2023-02-27T12:49:18.730Z,52.91
2023-02-27T12:50:23.964Z,52.63
2023-02-27T12:51:43.886Z,51.46
2023-02-27T12:52:57.559Z,53.63
2023-02-27T12:54:10.455Z,54.00
2023-02-27T12:55:23.614Z,51.96
2023-02-27T12:56:32.464Z,52.35
2023-02-27T12:58:01.790Z,53.86
2023-02-27T12:59:12.324Z,54.63
2023-02-27T13:00:19.022Z,55.09
2023-02-27T13:01:41.849Z,56.18
2023-02-27T13:03:10.030Z,57.61
2023-02-27T13:04:33.386Z,59.10
2023-02-27T13:05:57.871Z,58.69
2023-02-27T13:07:09.524Z,60.05
2023-02-27T13:08:38.651Z,60.76
2023-02-27T13:10:05.456Z,59.97
2023-02-27T13:11:30.526Z,60.54
2023-02-27T13:12:51.031Z,60.74
2023-02-27T13:14:00.008Z,60.75
2023-02-27T13:15:10.889Z,60.84
2023-02-27T13:16:18.152Z,60.69
2023-02-27T13:17:28.812Z,60.36
2023-02-27T13:18:33.345Z,61.79
2023-02-27T13:19:52.578Z,62.81
2023-02-27T13:21:06.743Z,62.90
2023-02-27T13:22:20.197Z,63.30
2023-02-27T13:23:51.263Z,63.15
2023-02-27T13:24:56.472Z,64.00
2023-02-27T13:26:01.396Z,64.94
2023-02-27T13:27:22.604Z,64.26
2023-02-27T13:28:27.426Z,63.81
2023-02-27T13:29:40.369Z,63.70
2023-02-27T13:30:47.028Z,64.32
2023-02-27T13:32:02.023Z,64.54
2023-02-27T13:33:17.872Z,65.45
2023-02-27T13:34:42.649Z,64.13
2023-02-27T13:35:56.972Z,64.13
2023-02-27T13:37:04.589Z,64.74
2023-02-27T13:38:43.281Z,63.89
2023-02-27T13:39:45.075Z,64.47
2023-02-27T13:40:46.849Z,63.76
2023-02-27T13:41:48.554Z,64.53
2023-02-27T13:42:52.790Z,64.27
2023-02-27T13:43:59.761Z,64.79
2023-02-27T13:45:05.020Z,65.02
2023-02-27T13:46:30.490Z,64.92
2023-02-27T13:48:01.858Z,64.98
2023-02-27T13:49:07.220Z,65.70
2023-02-27T13:50:19.107Z,66.23
2023-02-27T13:51:35.937Z,65.69
2023-02-27T13:52:39.512Z,66.59
2023-02-27T13:53:41.451Z,66.99
2023-02-27T13:54:43.373Z,67.55
2023-02-27T13:55:45.754Z,66.25
2023-02-27T13:56:56.573Z,66.33
2023-02-27T13:58:01.029Z,66.67
2023-02-27T13:59:38.388Z,67.22
2023-02-27T14:00:40.262Z,67.69
2023-02-27T14:01:54.363Z,68.32
2023-02-27T14:03:00.903Z,68.92
2023-02-27T14:04:06.098Z,69.00
2023-02-27T14:05:11.359Z,69.21
2023-02-27T14:06:13.230Z,68.57
2023-02-27T14:07:18.246Z,68.81
2023-02-27T14:08:23.456Z,68.29
2023-02-27T14:09:26.474Z,69.08
2023-02-27T14:10:31.017Z,68.75
2023-02-27T14:11:34.265Z,68.24
2023-02-27T14:12:44.537Z,68.43
2023-02-27T14:13:50.543Z,68.51
2023-02-27T14:14:52.696Z,68.84
2023-02-27T14:15:57.373Z,69.87
2023-02-27T14:17:00.516Z,70.19
2023-02-27T14:18:17.846Z,69.74
2023-02-27T14:19:28.791Z,69.71
2023-02-27T14:20:30.570Z,70.13
2023-02-27T14:21:51.121Z,70.68
2023-02-27T14:23:17.627Z,70.95
2023-02-27T14:24:23.739Z,71.15
2023-02-27T14:25:37.099Z,71.81
2023-02-27T14:26:39.961Z,71.92
2023-02-27T14:27:44.551Z,71.96
2023-02-27T14:28:53.257Z,72.47
2023-02-27T14:30:00.836Z,72.80
2023-02-27T14:31:06.176Z,73.15
2023-02-27T14:32:08.304Z,73.55
2023-02-27T14:33:40.553Z,74.11
2023-02-27T14:34:43.000Z,74.75
2023-02-27T14:35:49.313Z,75.85
2023-02-27T14:36:54.745Z,77.00
2023-02-27T14:37:56.833Z,76.70
2023-02-27T14:39:01.048Z,77.41
2023-02-27T14:40:03.778Z,77.63
2023-02-27T14:41:05.671Z,77.86
2023-02-27T14:42:44.197Z,79.02
2023-02-27T14:43:48.852Z,78.92
2023-02-27T14:44:51.716Z,78.14
2023-02-27T14:45:54.559Z,77.62
2023-02-27T14:46:59.735Z,77.22
2023-02-27T14:48:01.900Z,76.77
2023-02-27T14:49:08.242Z,77.42
2023-02-27T14:50:30.156Z,78.48
2023-02-27T14:51:35.825Z,78.58
2023-02-27T14:52:44.064Z,79.07
2023-02-27T14:53:46.071Z,79.66
2023-02-27T14:54:49.717Z,79.24
2023-02-27T14:55:56.906Z,79.41
2023-02-27T14:57:07.538Z,80.62
2023-02-27T14:58:21.593Z,81.05
2023-02-27T14:59:25.995Z,80.75
2023-02-27T15:00:41.038Z,80.38
2023-02-27T15:01:43.054Z,80.93
2023-02-27T15:02:45.311Z,81.20
2023-02-27T15:03:54.512Z,82.49
2023-02-27T15:05:02.272Z,83.38
2023-02-27T15:06:13.604Z,83.77
2023-02-27T15:07:24.563Z,85.44
2023-02-27T15:08:31.116Z,86.31
2023-02-27T15:09:41.793Z,88.47
2023-02-27T15:10:44.272Z,89.39
2023-02-27T15:11:57.434Z,89.96
2023-02-27T15:13:04.860Z,91.02
2023-02-27T15:14:06.912Z,91.31
2023-02-27T15:15:16.808Z,91.46
2023-02-27T15:16:40.246Z,91.20
2023-02-27T15:17:44.453Z,90.76
2023-02-27T15:19:35.554Z,90.80
2023-02-27T15:20:37.238Z,90.71
2023-02-27T15:21:42.782Z,90.65
2023-02-27T15:22:44.602Z,90.54
2023-02-27T15:24:23.656Z,90.30
2023-02-27T15:25:37.916Z,89.79
2023-02-27T15:26:42.109Z,89.50
2023-02-27T15:27:44.496Z,88.85
2023-02-27T15:28:48.981Z,88.25
2023-02-27T15:29:54.201Z,87.94
2023-02-27T15:30:57.146Z,87.27
2023-02-27T15:31:59.243Z,86.00
2023-02-27T15:33:01.374Z,86.66
2023-02-27T15:34:04.000Z,86.57
2023-02-27T15:35:17.548Z,86.27
2023-02-27T15:36:23.180Z,85.52